sensor_id;sensor_type;location;lat;lon;timestamp;P1;durP1;ratioP1;P2;durP2;ratioP2
4895;SDS011;2463;49.948;8.472;2023-02-28T00:01:27;93.45;;;5.82;;
4895;SDS011;2463;49.948;8.472;2023-02-28T00:03:55;97.03;;;6.40;;
4895;SDS011;2463;49.948;8.472;2023-02-28T00:06:22;92.88;;;6.05;;
4895;SDS011;2463;49.948;8.472;2023-02-28T00:08:50;93.75;;;6.35;;
4895;SDS011;2463;49.948;8.472;2023-02-28T00:11:17;93.72;;;6.50;;
4895;SDS011;2463;49.948;8.472;2023-02-28T00:13:44;92.43;;;6.07;;
4895;SDS011;2463;49.948;8.472;2023-02-28T00:16:15;92.97;;;6.30;;
4895;SDS011;2463;49.948;8.472;2023-02-28T00:18:47;94.30;;;6.22;;
4895;SDS011;2463;49.948;8.472;2023-02-28T00:21:15;93.25;;;5.95;;
4895;SDS011;2463;49.948;8.472;2023-02-28T00:23:43;93.13;;;6.00;;
4895;SDS011;2463;49.948;8.472;2023-02-28T00:26:09;94.43;;;6.45;;
4895;SDS011;2463;49.948;8.472;2023-02-28T00:28:36;94.40;;;6.35;;
4895;SDS011;2463;49.948;8.472;2023-02-28T00:31:03;93.10;;;6.50;;
4895;SDS011;2463;49.948;8.472;2023-02-28T00:33:30;94.18;;;6.53;;
4895;SDS011;2463;49.948;8.472;2023-02-28T00:36:01;95.95;;;6.63;;
4895;SDS011;2463;49.948;8.472;2023-02-28T00:38:29;93.07;;;6.00;;
4895;SDS011;2463;49.948;8.472;2023-02-28T00:40:56;93.55;;;6.35;;
4895;SDS011;2463;49.948;8.472;2023-02-28T00:43:24;94.82;;;6.60;;
4895;SDS011;2463;49.948;8.472;2023-02-28T00:45:51;93.55;;;6.93;;
4895;SDS011;2463;49.948;8.472;2023-02-28T00:48:18;95.47;;;6.40;;
4895;SDS011;2463;49.948;8.472;2023-02-28T00:50:44;93.82;;;6.50;;
4895;SDS011;2463;49.948;8.472;2023-02-28T00:53:15;100.68;;;6.90;;
4895;SDS011;2463;49.948;8.472;2023-02-28T00:55:42;94.40;;;6.60;;
4895;SDS011;2463;49.948;8.472;2023-02-28T00:58:09;93.32;;;6.38;;
4895;SDS011;2463;49.948;8.472;2023-02-28T01:00:36;94.75;;;6.85;;
4895;SDS011;2463;49.948;8.472;2023-02-28T01:03:02;95.47;;;6.80;;
4895;SDS011;2463;49.948;8.472;2023-02-28T01:05:29;93.82;;;6.70;;
4895;SDS011;2463;49.948;8.472;2023-02-28T01:07:55;96.07;;;7.15;;
4895;SDS011;2463;49.948;8.472;2023-02-28T01:10:22;93.28;;;6.45;;
4895;SDS011;2463;49.948;8.472;2023-02-28T01:12:49;93.93;;;6.30;;
4895;SDS011;2463;49.948;8.472;2023-02-28T01:15:15;94.03;;;7.05;;
4895;SDS011;2463;49.948;8.472;2023-02-28T01:17:42;93.38;;;6.70;;
4895;SDS011;2463;49.948;8.472;2023-02-28T01:20:09;94.25;;;6.53;;
4895;SDS011;2463;49.948;8.472;2023-02-28T01:22:36;94.35;;;6.85;;
4895;SDS011;2463;49.948;8.472;2023-02-28T01:25:03;93.18;;;6.40;;
4895;SDS011;2463;49.948;8.472;2023-02-28T01:27:30;94.68;;;7.35;;
4895;SDS011;2463;49.948;8.472;2023-02-28T01:29:56;95.40;;;6.95;;
4895;SDS011;2463;49.948;8.472;2023-02-28T01:32:23;94.22;;;7.00;;
4895;SDS011;2463;49.948;8.472;2023-02-28T01:34:50;94.97;;;6.72;;
4895;SDS011;2463;49.948;8.472;2023-02-28T01:37:16;94.53;;;7.18;;
4895;SDS011;2463;49.948;8.472;2023-02-28T01:39:43;94.55;;;6.85;;
4895;SDS011;2463;49.948;8.472;2023-02-28T01:42:10;94.45;;;7.40;;
4895;SDS011;2463;49.948;8.472;2023-02-28T01:47:41;95.38;;;6.85;;
4895;SDS011;2463;49.948;8.472;2023-02-28T01:50:11;94.32;;;6.80;;
4895;SDS011;2463;49.948;8.472;2023-02-28T01:52:40;94.43;;;7.15;;
4895;SDS011;2463;49.948;8.472;2023-02-28T01:55:09;96.75;;;7.15;;
4895;SDS011;2463;49.948;8.472;2023-02-28T01:57:39;95.57;;;7.15;;
4895;SDS011;2463;49.948;8.472;2023-02-28T02:00:12;95.70;;;7.20;;
4895;SDS011;2463;49.948;8.472;2023-02-28T02:02:41;98.43;;;7.88;;
4895;SDS011;2463;49.948;8.472;2023-02-28T02:05:24;95.38;;;7.47;;
4895;SDS011;2463;49.948;8.472;2023-02-28T02:07:55;94.60;;;7.10;;
4895;SDS011;2463;49.948;8.472;2023-02-28T02:10:29;101.55;;;6.95;;
4895;SDS011;2463;49.948;8.472;2023-02-28T02:18:52;93.97;;;6.75;;
4895;SDS011;2463;49.948;8.472;2023-02-28T02:37:13;94.78;;;7.40;;
4895;SDS011;2463;49.948;8.472;2023-02-28T02:40:33;97.43;;;7.55;;
4895;SDS011;2463;49.948;8.472;2023-02-28T02:45:41;93.78;;;7.10;;
4895;SDS011;2463;49.948;8.472;2023-02-28T02:48:17;96.05;;;8.05;;
4895;SDS011;2463;49.948;8.472;2023-02-28T02:50:50;95.82;;;7.50;;
4895;SDS011;2463;49.948;8.472;2023-02-28T02:53:22;98.35;;;8.30;;
4895;SDS011;2463;49.948;8.472;2023-02-28T02:55:54;95.07;;;7.40;;
4895;SDS011;2463;49.948;8.472;2023-02-28T02:58:23;95.68;;;7.72;;
4895;SDS011;2463;49.948;8.472;2023-02-28T03:00:57;95.45;;;7.57;;
4895;SDS011;2463;49.948;8.472;2023-02-28T03:03:27;94.82;;;8.05;;
4895;SDS011;2463;49.948;8.472;2023-02-28T03:05:59;95.78;;;7.70;;
4895;SDS011;2463;49.948;8.472;2023-02-28T03:08:27;94.88;;;7.75;;
4895;SDS011;2463;49.948;8.472;2023-02-28T03:10:57;95.75;;;7.93;;
4895;SDS011;2463;49.948;8.472;2023-02-28T03:13:42;95.03;;;8.00;;
4895;SDS011;2463;49.948;8.472;2023-02-28T03:22:01;95.93;;;8.00;;
4895;SDS011;2463;49.948;8.472;2023-02-28T03:24:50;95.32;;;7.85;;
4895;SDS011;2463;49.948;8.472;2023-02-28T03:27:23;95.28;;;7.25;;
4895;SDS011;2463;49.948;8.472;2023-02-28T03:29:52;96.45;;;8.05;;
4895;SDS011;2463;49.948;8.472;2023-02-28T03:32:27;94.47;;;7.40;;
4895;SDS011;2463;49.948;8.472;2023-02-28T03:35:01;94.07;;;7.22;;
4895;SDS011;2463;49.948;8.472;2023-02-28T03:37:34;96.13;;;8.05;;
4895;SDS011;2463;49.948;8.472;2023-02-28T03:40:04;95.78;;;7.78;;
4895;SDS011;2463;49.948;8.472;2023-02-28T03:42:44;96.75;;;8.10;;
4895;SDS011;2463;49.948;8.472;2023-02-28T03:45:15;97.50;;;7.18;;
4895;SDS011;2463;49.948;8.472;2023-02-28T03:50:19;95.57;;;7.65;;
4895;SDS011;2463;49.948;8.472;2023-02-28T03:52:49;96.63;;;7.60;;
4895;SDS011;2463;49.948;8.472;2023-02-28T03:55:37;95.50;;;7.55;;
4895;SDS011;2463;49.948;8.472;2023-02-28T03:58:27;95.85;;;7.60;;
4895;SDS011;2463;49.948;8.472;2023-02-28T04:01:01;97.18;;;9.65;;
4895;SDS011;2463;49.948;8.472;2023-02-28T04:03:38;95.93;;;7.65;;
4895;SDS011;2463;49.948;8.472;2023-02-28T04:06:06;95.25;;;7.70;;
4895;SDS011;2463;49.948;8.472;2023-02-28T04:08:38;95.30;;;7.57;;
4895;SDS011;2463;49.948;8.472;2023-02-28T04:11:07;95.80;;;7.70;;
4895;SDS011;2463;49.948;8.472;2023-02-28T04:14:02;95.80;;;7.45;;
4895;SDS011;2463;49.948;8.472;2023-02-28T04:16:30;95.18;;;7.32;;
4895;SDS011;2463;49.948;8.472;2023-02-28T04:19:02;94.75;;;7.47;;
4895;SDS011;2463;49.948;8.472;2023-02-28T04:21:31;95.63;;;7.35;;
4895;SDS011;2463;49.948;8.472;2023-02-28T04:24:00;95.68;;;7.60;;
4895;SDS011;2463;49.948;8.472;2023-02-28T04:26:34;100.15;;;8.18;;
4895;SDS011;2463;49.948;8.472;2023-02-28T04:29:03;94.72;;;7.70;;
4895;SDS011;2463;49.948;8.472;2023-02-28T04:31:31;95.70;;;7.65;;
4895;SDS011;2463;49.948;8.472;2023-02-28T04:33:58;96.45;;;7.82;;
4895;SDS011;2463;49.948;8.472;2023-02-28T04:36:26;97.43;;;7.40;;
4895;SDS011;2463;49.948;8.472;2023-02-28T04:38:53;95.93;;;7.60;;
4895;SDS011;2463;49.948;8.472;2023-02-28T04:41:20;96.47;;;7.72;;
4895;SDS011;2463;49.948;8.472;2023-02-28T04:43:47;95.35;;;7.60;;
4895;SDS011;2463;49.948;8.472;2023-02-28T04:46:14;97.30;;;7.95;;
4895;SDS011;2463;49.948;8.472;2023-02-28T04:48:41;96.10;;;8.43;;
4895;SDS011;2463;49.948;8.472;2023-02-28T04:51:10;96.65;;;7.82;;
4895;SDS011;2463;49.948;8.472;2023-02-28T04:53:39;96.63;;;8.10;;
4895;SDS011;2463;49.948;8.472;2023-02-28T04:56:07;95.45;;;7.55;;
4895;SDS011;2463;49.948;8.472;2023-02-28T04:58:37;95.15;;;7.35;;
4895;SDS011;2463;49.948;8.472;2023-02-28T05:01:04;95.80;;;7.80;;
4895;SDS011;2463;49.948;8.472;2023-02-28T05:03:52;95.13;;;7.65;;
4895;SDS011;2463;49.948;8.472;2023-02-28T05:06:21;96.38;;;7.72;;
4895;SDS011;2463;49.948;8.472;2023-02-28T05:08:50;96.38;;;7.68;;
4895;SDS011;2463;49.948;8.472;2023-02-28T05:11:38;96.72;;;7.97;;
4895;SDS011;2463;49.948;8.472;2023-02-28T05:14:06;95.22;;;7.68;;
4895;SDS011;2463;49.948;8.472;2023-02-28T05:16:36;95.10;;;7.45;;
4895;SDS011;2463;49.948;8.472;2023-02-28T05:19:03;96.22;;;8.10;;
4895;SDS011;2463;49.948;8.472;2023-02-28T05:23:59;96.88;;;8.15;;
4895;SDS011;2463;49.948;8.472;2023-02-28T05:26:28;100.88;;;8.85;;
4895;SDS011;2463;49.948;8.472;2023-02-28T05:28:55;96.50;;;8.32;;
4895;SDS011;2463;49.948;8.472;2023-02-28T05:31:23;94.05;;;7.28;;
4895;SDS011;2463;49.948;8.472;2023-02-28T05:33:50;95.40;;;7.15;;
4895;SDS011;2463;49.948;8.472;2023-02-28T05:36:17;96.72;;;8.00;;
4895;SDS011;2463;49.948;8.472;2023-02-28T05:38:45;96.40;;;7.75;;
4895;SDS011;2463;49.948;8.472;2023-02-28T05:41:14;97.13;;;7.80;;
4895;SDS011;2463;49.948;8.472;2023-02-28T05:43:41;94.75;;;7.97;;
4895;SDS011;2463;49.948;8.472;2023-02-28T05:46:08;94.78;;;6.93;;
4895;SDS011;2463;49.948;8.472;2023-02-28T05:48:37;96.30;;;7.45;;
4895;SDS011;2463;49.948;8.472;2023-02-28T05:51:05;96.03;;;7.60;;
4895;SDS011;2463;49.948;8.472;2023-02-28T05:53:33;97.15;;;8.00;;
4895;SDS011;2463;49.948;8.472;2023-02-28T05:56:00;94.80;;;7.38;;
4895;SDS011;2463;49.948;8.472;2023-02-28T05:58:27;94.78;;;7.35;;
4895;SDS011;2463;49.948;8.472;2023-02-28T06:00:57;96.93;;;7.60;;
4895;SDS011;2463;49.948;8.472;2023-02-28T06:03:25;94.93;;;7.60;;
4895;SDS011;2463;49.948;8.472;2023-02-28T06:05:53;95.32;;;7.70;;
4895;SDS011;2463;49.948;8.472;2023-02-28T06:08:20;94.95;;;7.60;;
4895;SDS011;2463;49.948;8.472;2023-02-28T06:10:47;96.22;;;7.82;;
4895;SDS011;2463;49.948;8.472;2023-02-28T06:13:13;101.57;;;7.88;;
4895;SDS011;2463;49.948;8.472;2023-02-28T06:15:40;102.25;;;7.97;;
4895;SDS011;2463;49.948;8.472;2023-02-28T06:18:07;96.53;;;7.75;;
4895;SDS011;2463;49.948;8.472;2023-02-28T06:20:34;96.57;;;8.25;;
4895;SDS011;2463;49.948;8.472;2023-02-28T06:23:02;95.55;;;7.75;;
4895;SDS011;2463;49.948;8.472;2023-02-28T06:25:29;96.90;;;8.23;;
4895;SDS011;2463;49.948;8.472;2023-02-28T06:27:56;95.55;;;7.65;;
4895;SDS011;2463;49.948;8.472;2023-02-28T06:30:22;95.38;;;8.48;;
4895;SDS011;2463;49.948;8.472;2023-02-28T06:32:51;96.43;;;7.63;;
4895;SDS011;2463;49.948;8.472;2023-02-28T06:35:18;95.68;;;7.95;;
4895;SDS011;2463;49.948;8.472;2023-02-28T06:37:45;108.32;;;8.80;;
4895;SDS011;2463;49.948;8.472;2023-02-28T06:40:13;95.75;;;7.60;;
4895;SDS011;2463;49.948;8.472;2023-02-28T06:42:40;95.28;;;7.65;;
4895;SDS011;2463;49.948;8.472;2023-02-28T06:45:07;96.95;;;7.60;;
4895;SDS011;2463;49.948;8.472;2023-02-28T06:47:36;96.85;;;7.95;;
4895;SDS011;2463;49.948;8.472;2023-02-28T06:50:04;96.57;;;7.20;;
4895;SDS011;2463;49.948;8.472;2023-02-28T06:52:32;93.60;;;7.00;;
4895;SDS011;2463;49.948;8.472;2023-02-28T06:55:02;95.85;;;6.90;;
4895;SDS011;2463;49.948;8.472;2023-02-28T06:57:30;94.07;;;7.22;;
4895;SDS011;2463;49.948;8.472;2023-02-28T06:59:58;94.20;;;6.85;;
4895;SDS011;2463;49.948;8.472;2023-02-28T07:02:27;94.93;;;7.07;;
4895;SDS011;2463;49.948;8.472;2023-02-28T07:04:53;95.80;;;7.10;;
4895;SDS011;2463;49.948;8.472;2023-02-28T07:07:20;95.88;;;7.10;;
4895;SDS011;2463;49.948;8.472;2023-02-28T07:09:47;96.07;;;6.75;;
4895;SDS011;2463;49.948;8.472;2023-02-28T07:12:14;94.22;;;6.40;;
4895;SDS011;2463;49.948;8.472;2023-02-28T07:14:40;94.40;;;6.85;;
4895;SDS011;2463;49.948;8.472;2023-02-28T07:17:08;94.20;;;6.80;;
4895;SDS011;2463;49.948;8.472;2023-02-28T07:19:38;93.95;;;7.05;;
4895;SDS011;2463;49.948;8.472;2023-02-28T07:22:05;93.47;;;6.57;;
4895;SDS011;2463;49.948;8.472;2023-02-28T07:24:33;94.30;;;6.68;;
4895;SDS011;2463;49.948;8.472;2023-02-28T07:26:59;92.70;;;6.45;;
4895;SDS011;2463;49.948;8.472;2023-02-28T07:29:27;92.93;;;6.75;;
4895;SDS011;2463;49.948;8.472;2023-02-28T07:31:55;98.47;;;6.70;;
4895;SDS011;2463;49.948;8.472;2023-02-28T07:34:22;93.57;;;6.85;;
4895;SDS011;2463;49.948;8.472;2023-02-28T07:36:52;93.47;;;6.50;;
4895;SDS011;2463;49.948;8.472;2023-02-28T07:39:20;94.28;;;6.97;;
4895;SDS011;2463;49.948;8.472;2023-02-28T07:41:48;94.22;;;6.35;;
4895;SDS011;2463;49.948;8.472;2023-02-28T07:44:14;93.32;;;6.45;;
4895;SDS011;2463;49.948;8.472;2023-02-28T07:46:41;94.53;;;6.90;;
4895;SDS011;2463;49.948;8.472;2023-02-28T07:49:08;94.60;;;6.93;;
4895;SDS011;2463;49.948;8.472;2023-02-28T07:51:35;96.75;;;6.50;;
4895;SDS011;2463;49.948;8.472;2023-02-28T07:54:01;93.43;;;6.50;;
4895;SDS011;2463;49.948;8.472;2023-02-28T07:56:28;95.00;;;6.53;;
4895;SDS011;2463;49.948;8.472;2023-02-28T07:58:55;94.35;;;6.93;;
4895;SDS011;2463;49.948;8.472;2023-02-28T08:01:22;93.18;;;6.80;;
4895;SDS011;2463;49.948;8.472;2023-02-28T08:03:49;93.15;;;6.50;;
4895;SDS011;2463;49.948;8.472;2023-02-28T08:06:17;95.35;;;6.57;;
4895;SDS011;2463;49.948;8.472;2023-02-28T08:08:47;95.53;;;6.55;;
4895;SDS011;2463;49.948;8.472;2023-02-28T08:11:14;92.43;;;6.40;;
4895;SDS011;2463;49.948;8.472;2023-02-28T08:13:43;92.82;;;6.75;;
4895;SDS011;2463;49.948;8.472;2023-02-28T08:16:11;92.63;;;6.35;;
4895;SDS011;2463;49.948;8.472;2023-02-28T08:18:48;93.88;;;6.50;;
4895;SDS011;2463;49.948;8.472;2023-02-28T08:21:16;93.43;;;6.63;;
4895;SDS011;2463;49.948;8.472;2023-02-28T08:23:43;92.70;;;6.55;;
4895;SDS011;2463;49.948;8.472;2023-02-28T08:26:10;94.80;;;6.30;;
4895;SDS011;2463;49.948;8.472;2023-02-28T08:28:37;92.32;;;6.30;;
4895;SDS011;2463;49.948;8.472;2023-02-28T08:31:07;91.28;;;6.25;;
4895;SDS011;2463;49.948;8.472;2023-02-28T08:33:40;97.35;;;7.25;;
4895;SDS011;2463;49.948;8.472;2023-02-28T08:36:08;92.47;;;6.95;;
4895;SDS011;2463;49.948;8.472;2023-02-28T08:38:35;92.30;;;6.47;;
4895;SDS011;2463;49.948;8.472;2023-02-28T08:41:04;94.28;;;6.30;;
4895;SDS011;2463;49.948;8.472;2023-02-28T08:43:33;91.63;;;6.30;;
4895;SDS011;2463;49.948;8.472;2023-02-28T08:46:01;92.18;;;6.05;;
4895;SDS011;2463;49.948;8.472;2023-02-28T08:48:30;91.63;;;6.05;;
4895;SDS011;2463;49.948;8.472;2023-02-28T08:51:05;90.10;;;6.05;;
4895;SDS011;2463;49.948;8.472;2023-02-28T08:53:36;92.93;;;6.18;;
4895;SDS011;2463;49.948;8.472;2023-02-28T08:56:07;90.53;;;6.00;;
4895;SDS011;2463;49.948;8.472;2023-02-28T08:58:36;90.90;;;6.30;;
4895;SDS011;2463;49.948;8.472;2023-02-28T09:01:13;91.05;;;5.97;;
4895;SDS011;2463;49.948;8.472;2023-02-28T09:03:48;89.22;;;5.20;;
4895;SDS011;2463;49.948;8.472;2023-02-28T09:06:16;90.28;;;5.97;;
4895;SDS011;2463;49.948;8.472;2023-02-28T09:08:44;91.50;;;5.75;;
4895;SDS011;2463;49.948;8.472;2023-02-28T09:11:11;89.53;;;5.70;;
4895;SDS011;2463;49.948;8.472;2023-02-28T09:13:39;91.32;;;6.20;;
4895;SDS011;2463;49.948;8.472;2023-02-28T09:16:06;90.50;;;5.82;;
4895;SDS011;2463;49.948;8.472;2023-02-28T09:18:36;92.07;;;6.47;;
4895;SDS011;2463;49.948;8.472;2023-02-28T09:21:04;91.13;;;6.38;;
4895;SDS011;2463;49.948;8.472;2023-02-28T09:23:35;93.50;;;7.13;;
4895;SDS011;2463;49.948;8.472;2023-02-28T09:26:04;91.85;;;6.30;;
4895;SDS011;2463;49.948;8.472;2023-02-28T09:28:31;91.95;;;6.47;;
4895;SDS011;2463;49.948;8.472;2023-02-28T09:30:58;92.88;;;6.93;;
4895;SDS011;2463;49.948;8.472;2023-02-28T09:33:25;91.90;;;6.50;;
4895;SDS011;2463;49.948;8.472;2023-02-28T09:35:57;92.32;;;6.45;;
4895;SDS011;2463;49.948;8.472;2023-02-28T09:38:26;91.13;;;6.25;;
4895;SDS011;2463;49.948;8.472;2023-02-28T09:40:55;91.15;;;6.05;;
4895;SDS011;2463;49.948;8.472;2023-02-28T09:43:29;90.88;;;6.55;;
4895;SDS011;2463;49.948;8.472;2023-02-28T09:48:41;88.57;;;5.40;;
4895;SDS011;2463;49.948;8.472;2023-02-28T09:51:21;89.07;;;5.68;;
4895;SDS011;2463;49.948;8.472;2023-02-28T09:54:20;89.15;;;5.93;;
4895;SDS011;2463;49.948;8.472;2023-02-28T09:59:39;88.57;;;5.45;;
4895;SDS011;2463;49.948;8.472;2023-02-28T10:02:16;88.82;;;5.40;;
4895;SDS011;2463;49.948;8.472;2023-02-28T10:05:20;88.55;;;5.35;;
4895;SDS011;2463;49.948;8.472;2023-02-28T10:10:45;87.93;;;5.55;;
4895;SDS011;2463;49.948;8.472;2023-02-28T10:15:49;91.15;;;5.93;;
4895;SDS011;2463;49.948;8.472;2023-02-28T10:18:21;89.50;;;6.32;;
4895;SDS011;2463;49.948;8.472;2023-02-28T10:20:51;90.40;;;6.25;;
4895;SDS011;2463;49.948;8.472;2023-02-28T10:23:28;88.18;;;5.57;;
4895;SDS011;2463;49.948;8.472;2023-02-28T10:26:04;90.75;;;5.75;;
4895;SDS011;2463;49.948;8.472;2023-02-28T10:28:37;89.80;;;5.82;;
4895;SDS011;2463;49.948;8.472;2023-02-28T10:31:04;88.07;;;5.40;;
4895;SDS011;2463;49.948;8.472;2023-02-28T10:33:34;88.45;;;6.07;;
4895;SDS011;2463;49.948;8.472;2023-02-28T10:36:02;88.82;;;5.78;;
4895;SDS011;2463;49.948;8.472;2023-02-28T10:38:34;88.70;;;5.65;;
4895;SDS011;2463;49.948;8.472;2023-02-28T10:41:16;89.18;;;5.78;;
4895;SDS011;2463;49.948;8.472;2023-02-28T10:44:12;90.13;;;6.40;;
4895;SDS011;2463;49.948;8.472;2023-02-28T10:46:41;89.28;;;5.63;;
4895;SDS011;2463;49.948;8.472;2023-02-28T10:51:51;88.60;;;5.55;;
4895;SDS011;2463;49.948;8.472;2023-02-28T10:54:24;89.05;;;5.80;;
4895;SDS011;2463;49.948;8.472;2023-02-28T10:57:17;89.47;;;6.22;;
4895;SDS011;2463;49.948;8.472;2023-02-28T10:59:46;87.80;;;5.95;;
4895;SDS011;2463;49.948;8.472;2023-02-28T11:02:36;89.32;;;5.85;;
4895;SDS011;2463;49.948;8.472;2023-02-28T11:07:51;87.63;;;5.45;;
4895;SDS011;2463;49.948;8.472;2023-02-28T11:10:24;87.00;;;5.22;;
4895;SDS011;2463;49.948;8.472;2023-02-28T11:12:55;85.50;;;5.20;;
4895;SDS011;2463;49.948;8.472;2023-02-28T11:15:27;86.47;;;5.30;;
4895;SDS011;2463;49.948;8.472;2023-02-28T11:20:49;85.90;;;5.27;;
4895;SDS011;2463;49.948;8.472;2023-02-28T11:23:18;85.43;;;5.83;;
4895;SDS011;2463;49.948;8.472;2023-02-28T11:25:47;84.03;;;4.90;;
4895;SDS011;2463;49.948;8.472;2023-02-28T11:28:51;82.87;;;5.00;;
4895;SDS011;2463;49.948;8.472;2023-02-28T11:33:47;85.00;;;5.57;;
4895;SDS011;2463;49.948;8.472;2023-02-28T11:36:23;85.87;;;5.70;;
4895;SDS011;2463;49.948;8.472;2023-02-28T11:38:54;83.50;;;5.23;;
4895;SDS011;2463;49.948;8.472;2023-02-28T11:44:28;86.20;;;5.70;;
4895;SDS011;2463;49.948;8.472;2023-02-28T11:50:11;83.97;;;5.50;;
4895;SDS011;2463;49.948;8.472;2023-02-28T11:53:11;85.00;;;5.00;;
4895;SDS011;2463;49.948;8.472;2023-02-28T11:58:43;86.00;;;5.50;;
4895;SDS011;2463;49.948;8.472;2023-02-28T12:07:09;88.25;;;5.93;;
4895;SDS011;2463;49.948;8.472;2023-02-28T12:12:37;89.93;;;6.55;;
4895;SDS011;2463;49.948;8.472;2023-02-28T12:26:37;88.88;;;6.20;;
4895;SDS011;2463;49.948;8.472;2023-02-28T12:31:56;88.45;;;5.82;;
4895;SDS011;2463;49.948;8.472;2023-02-28T12:34:37;89.15;;;6.35;;
4895;SDS011;2463;49.948;8.472;2023-02-28T12:37:17;88.30;;;6.07;;
4895;SDS011;2463;49.948;8.472;2023-02-28T12:39:59;89.03;;;5.80;;
4895;SDS011;2463;49.948;8.472;2023-02-28T12:42:32;87.55;;;6.18;;
4895;SDS011;2463;49.948;8.472;2023-02-28T12:45:12;87.28;;;5.93;;
4895;SDS011;2463;49.948;8.472;2023-02-28T12:48:04;89.00;;;6.47;;
4895;SDS011;2463;49.948;8.472;2023-02-28T12:50:33;87.97;;;6.55;;
4895;SDS011;2463;49.948;8.472;2023-02-28T12:53:03;88.60;;;6.15;;
4895;SDS011;2463;49.948;8.472;2023-02-28T12:58:34;86.88;;;5.90;;
4895;SDS011;2463;49.948;8.472;2023-02-28T13:19:32;89.93;;;7.20;;
4895;SDS011;2463;49.948;8.472;2023-02-28T13:22:01;91.45;;;6.78;;
4895;SDS011;2463;49.948;8.472;2023-02-28T13:27:11;92.70;;;8.27;;
4895;SDS011;2463;49.948;8.472;2023-02-28T13:29:39;92.95;;;7.20;;
4895;SDS011;2463;49.948;8.472;2023-02-28T13:34:39;98.00;;;8.40;;
4895;SDS011;2463;49.948;8.472;2023-02-28T13:39:54;93.68;;;7.80;;
4895;SDS011;2463;49.948;8.472;2023-02-28T13:42:23;93.53;;;7.60;;
4895;SDS011;2463;49.948;8.472;2023-02-28T13:45:19;92.47;;;7.43;;
4895;SDS011;2463;49.948;8.472;2023-02-28T13:47:52;95.43;;;7.88;;
4895;SDS011;2463;49.948;8.472;2023-02-28T13:50:34;95.57;;;8.57;;
4895;SDS011;2463;49.948;8.472;2023-02-28T14:06:51;93.47;;;7.30;;
4895;SDS011;2463;49.948;8.472;2023-02-28T14:09:25;94.55;;;7.70;;
4895;SDS011;2463;49.948;8.472;2023-02-28T14:12:10;93.63;;;7.45;;
4895;SDS011;2463;49.948;8.472;2023-02-28T14:15:03;97.25;;;8.52;;
4895;SDS011;2463;49.948;8.472;2023-02-28T14:17:51;93.07;;;7.55;;
4895;SDS011;2463;49.948;8.472;2023-02-28T14:20:20;95.47;;;7.82;;
4895;SDS011;2463;49.948;8.472;2023-02-28T14:28:27;95.32;;;8.07;;
4895;SDS011;2463;49.948;8.472;2023-02-28T14:31:24;95.72;;;8.18;;
4895;SDS011;2463;49.948;8.472;2023-02-28T14:34:12;95.07;;;8.07;;
4895;SDS011;2463;49.948;8.472;2023-02-28T14:36:51;94.55;;;8.10;;
4895;SDS011;2463;49.948;8.472;2023-02-28T14:39:20;96.53;;;7.68;;
4895;SDS011;2463;49.948;8.472;2023-02-28T14:41:51;93.78;;;7.60;;
4895;SDS011;2463;49.948;8.472;2023-02-28T14:44:19;92.82;;;6.82;;
4895;SDS011;2463;49.948;8.472;2023-02-28T14:46:50;94.38;;;7.35;;
4895;SDS011;2463;49.948;8.472;2023-02-28T14:49:26;93.75;;;7.63;;
4895;SDS011;2463;49.948;8.472;2023-02-28T14:52:02;95.63;;;8.30;;
4895;SDS011;2463;49.948;8.472;2023-02-28T14:54:36;93.00;;;7.60;;
4895;SDS011;2463;49.948;8.472;2023-02-28T14:57:04;93.10;;;7.32;;
4895;SDS011;2463;49.948;8.472;2023-02-28T14:59:32;92.53;;;7.55;;
4895;SDS011;2463;49.948;8.472;2023-02-28T15:02:16;93.97;;;7.60;;
4895;SDS011;2463;49.948;8.472;2023-02-28T15:04:51;99.13;;;7.65;;
4895;SDS011;2463;49.948;8.472;2023-02-28T15:07:19;94.32;;;8.10;;
4895;SDS011;2463;49.948;8.472;2023-02-28T15:12:52;94.53;;;7.82;;
4895;SDS011;2463;49.948;8.472;2023-02-28T15:15:20;95.53;;;8.43;;
4895;SDS011;2463;49.948;8.472;2023-02-28T15:18:01;94.40;;;7.90;;
4895;SDS011;2463;49.948;8.472;2023-02-28T15:20:31;97.85;;;8.35;;
4895;SDS011;2463;49.948;8.472;2023-02-28T15:23:00;94.60;;;8.05;;
4895;SDS011;2463;49.948;8.472;2023-02-28T15:25:28;95.00;;;7.75;;
4895;SDS011;2463;49.948;8.472;2023-02-28T15:27:55;95.25;;;7.97;;
4895;SDS011;2463;49.948;8.472;2023-02-28T15:30:29;94.10;;;7.53;;
4895;SDS011;2463;49.948;8.472;2023-02-28T15:33:05;96.63;;;8.10;;
4895;SDS011;2463;49.948;8.472;2023-02-28T15:35:44;92.82;;;8.10;;
4895;SDS011;2463;49.948;8.472;2023-02-28T15:38:15;92.93;;;7.43;;
4895;SDS011;2463;49.948;8.472;2023-02-28T15:40:54;98.45;;;7.80;;
4895;SDS011;2463;49.948;8.472;2023-02-28T15:43:23;93.93;;;7.45;;
4895;SDS011;2463;49.948;8.472;2023-02-28T15:48:43;94.00;;;7.25;;
4895;SDS011;2463;49.948;8.472;2023-02-28T15:51:18;94.78;;;8.10;;
4895;SDS011;2463;49.948;8.472;2023-02-28T15:54:02;97.35;;;8.93;;
4895;SDS011;2463;49.948;8.472;2023-02-28T15:56:35;102.47;;;7.88;;
4895;SDS011;2463;49.948;8.472;2023-02-28T15:59:12;93.13;;;7.32;;
4895;SDS011;2463;49.948;8.472;2023-02-28T16:02:01;99.00;;;8.00;;
4895;SDS011;2463;49.948;8.472;2023-02-28T16:04:37;93.63;;;7.88;;
4895;SDS011;2463;49.948;8.472;2023-02-28T16:07:26;97.40;;;8.32;;
4895;SDS011;2463;49.948;8.472;2023-02-28T16:09:53;94.88;;;7.97;;
4895;SDS011;2463;49.948;8.472;2023-02-28T16:12:20;94.47;;;7.95;;
4895;SDS011;2463;49.948;8.472;2023-02-28T16:14:52;99.30;;;8.00;;
4895;SDS011;2463;49.948;8.472;2023-02-28T16:17:22;94.05;;;7.50;;
4895;SDS011;2463;49.948;8.472;2023-02-28T16:19:53;93.90;;;7.47;;
4895;SDS011;2463;49.948;8.472;2023-02-28T16:22:20;94.03;;;7.57;;
4895;SDS011;2463;49.948;8.472;2023-02-28T16:24:47;96.35;;;7.85;;
4895;SDS011;2463;49.948;8.472;2023-02-28T16:27:30;99.05;;;9.15;;
4895;SDS011;2463;49.948;8.472;2023-02-28T16:29:59;96.20;;;8.35;;
4895;SDS011;2463;49.948;8.472;2023-02-28T16:32:34;95.55;;;7.95;;
4895;SDS011;2463;49.948;8.472;2023-02-28T16:35:02;95.32;;;7.80;;
4895;SDS011;2463;49.948;8.472;2023-02-28T16:37:31;94.43;;;7.68;;
4895;SDS011;2463;49.948;8.472;2023-02-28T16:39:58;98.80;;;8.05;;
4895;SDS011;2463;49.948;8.472;2023-02-28T16:42:25;95.63;;;7.85;;
4895;SDS011;2463;49.948;8.472;2023-02-28T16:44:54;93.90;;;7.18;;
4895;SDS011;2463;49.948;8.472;2023-02-28T16:47:21;94.95;;;7.63;;
4895;SDS011;2463;49.948;8.472;2023-02-28T16:49:48;98.60;;;8.30;;
4895;SDS011;2463;49.948;8.472;2023-02-28T16:52:15;95.90;;;7.50;;
4895;SDS011;2463;49.948;8.472;2023-02-28T16:54:42;96.57;;;7.97;;
4895;SDS011;2463;49.948;8.472;2023-02-28T16:57:27;96.80;;;8.10;;
4895;SDS011;2463;49.948;8.472;2023-02-28T16:59:53;99.20;;;8.43;;
4895;SDS011;2463;49.948;8.472;2023-02-28T17:02:20;98.85;;;8.63;;
4895;SDS011;2463;49.948;8.472;2023-02-28T17:04:47;95.30;;;8.00;;
4895;SDS011;2463;49.948;8.472;2023-02-28T17:07:14;95.57;;;7.82;;
4895;SDS011;2463;49.948;8.472;2023-02-28T17:09:43;98.82;;;7.88;;
4895;SDS011;2463;49.948;8.472;2023-02-28T17:12:11;97.30;;;8.25;;
4895;SDS011;2463;49.948;8.472;2023-02-28T17:14:38;97.68;;;8.20;;
4895;SDS011;2463;49.948;8.472;2023-02-28T17:17:05;95.70;;;7.93;;
4895;SDS011;2463;49.948;8.472;2023-02-28T17:19:33;97.95;;;8.18;;
4895;SDS011;2463;49.948;8.472;2023-02-28T17:22:02;98.22;;;7.93;;
4895;SDS011;2463;49.948;8.472;2023-02-28T17:24:29;97.63;;;8.27;;
4895;SDS011;2463;49.948;8.472;2023-02-28T17:26:56;99.03;;;7.60;;
4895;SDS011;2463;49.948;8.472;2023-02-28T17:29:23;94.85;;;7.97;;
4895;SDS011;2463;49.948;8.472;2023-02-28T17:31:50;98.18;;;8.70;;
4895;SDS011;2463;49.948;8.472;2023-02-28T17:34:17;96.60;;;8.60;;
4895;SDS011;2463;49.948;8.472;2023-02-28T17:36:46;96.28;;;8.10;;
4895;SDS011;2463;49.948;8.472;2023-02-28T17:39:15;99.03;;;8.27;;
4895;SDS011;2463;49.948;8.472;2023-02-28T17:41:53;97.38;;;8.60;;
4895;SDS011;2463;49.948;8.472;2023-02-28T17:44:21;98.18;;;8.52;;
4895;SDS011;2463;49.948;8.472;2023-02-28T17:46:50;97.80;;;8.35;;
4895;SDS011;2463;49.948;8.472;2023-02-28T17:49:17;100.55;;;9.32;;
4895;SDS011;2463;49.948;8.472;2023-02-28T17:51:44;95.13;;;7.75;;